Time;durP1;ratioP1;P1;durP2;ratioP2;P2;SDS_P1;SDS_P2;PMS_P1;PMS_P2;Temp;Humidity;BMP_temperature;BMP_pressure;BME280_temperature;BME280_humidity;BME280_pressure;Samples;Min_cycle;Max_cycle;Signal;HPM_P1;HPM_P2
2023/08/12 08:47:45;;;;;;;7.03;6.53;;;;;;;19.83;100.00;101278.78;5070591;27;20422;-68
2023/08/12 08:50:12;;;;;;;7.38;6.88;;;;;;;19.87;100.00;101274.38;5069054;28;20151;-68
2023/08/12 08:52:37;;;;;;;8.18;7.57;;;;;;;19.86;100.00;101278.22;5069585;28;20032;-69
2023/08/12 08:55:04;;;;;;;8.70;8.00;;;;;;;19.85;100.00;101279.31;5068687;28;20059;-70
2023/08/12 08:57:29;;;;;;;8.48;7.88;;;;;;;19.81;100.00;101278.22;5066901;28;20549;-70
2023/08/12 08:59:55;;;;;;;7.47;6.88;;;;;;;19.81;100.00;101278.22;5068897;28;20040;-68
2023/08/12 09:02:21;;;;;;;6.80;6.25;;;;;;;19.77;100.00;101274.34;5065077;28;20048;-69
2023/08/12 09:04:47;;;;;;;5.93;5.47;;;;;;;19.74;100.00;101274.91;5060785;28;20039;-69
2023/08/12 09:07:16;;;;;;;6.10;5.40;;;;;;;19.76;100.00;101290.00;5065075;28;20036;-78
2023/08/12 09:09:46;;;;;;;4.90;4.50;;;;;;;19.75;100.00;101291.09;5050079;28;20086;-76
2023/08/12 09:12:14;;;;;;;4.50;3.67;;;;;;;19.78;100.00;101295.25;5049305;28;20036;-71
2023/08/12 09:14:39;;;;;;;3.75;3.40;;;;;;;19.77;100.00;101296.31;5048146;28;20025;-70
2023/08/12 09:17:05;;;;;;;2.97;2.83;;;;;;;19.79;100.00;101305.13;5049249;28;20086;-73
2023/08/12 09:19:30;;;;;;;2.67;2.47;;;;;;;19.81;100.00;101316.69;5053239;28;20028;-69
2023/08/12 09:21:55;;;;;;;2.55;2.35;;;;;;;19.79;100.00;101321.59;5057452;28;20048;-70
2023/08/12 09:24:27;;;;;;;3.00;2.30;;;;;;;19.71;100.00;101328.44;5048492;28;20106;-71
2023/08/12 09:26:54;;;;;;;3.22;2.33;;;;;;;19.71;100.00;101325.69;5049034;28;20062;-71
2023/08/12 09:29:24;;;;;;;2.33;2.10;;;;;;;19.64;100.00;101334.22;5049185;28;20091;-73
2023/08/12 09:31:50;;;;;;;2.13;2.03;;;;;;;19.61;100.00;101325.69;5047851;28;20029;-69
2023/08/12 09:34:17;;;;;;;2.45;1.77;;;;;;;19.56;100.00;101334.75;5049261;28;20033;-69
2023/08/12 09:36:43;;;;;;;4.82;1.98;;;;;;;19.63;100.00;101329.81;5054105;28;21681;-69
2023/08/12 09:39:08;;;;;;;3.55;2.10;;;;;;;19.63;100.00;101332.56;5051527;28;20029;-69
2023/08/12 09:41:34;;;;;;;1.95;1.85;;;;;;;19.57;100.00;101339.16;5060851;28;20068;-68
2023/08/12 09:44:01;;;;;;;4.50;2.10;;;;;;;19.47;100.00;101331.75;5057291;28;20033;-69
2023/08/12 09:46:27;;;;;;;4.72;2.00;;;;;;;19.48;100.00;101327.06;5063480;28;20048;-69
2023/08/12 09:48:53;;;;;;;5.50;2.20;;;;;;;19.53;100.00;101324.31;5068082;28;20376;-69
2023/08/12 09:51:22;;;;;;;3.05;2.25;;;;;;;19.57;100.00;101341.09;5068236;28;20155;-72
2023/08/12 09:53:49;;;;;;;5.07;2.55;;;;;;;19.60;100.00;101338.59;5083013;28;20158;-69
2023/08/12 09:56:19;;;;;;;3.47;2.72;;;;;;;19.60;100.00;101335.84;5088756;28;20036;-69
2023/08/12 09:58:50;;;;;;;4.43;2.50;;;;;;;19.60;100.00;101346.84;5038176;28;20459;-69
2023/08/12 10:01:22;;;;;;;2.72;2.22;;;;;;;19.70;100.00;101340.53;5052930;28;20506;-69
2023/08/12 10:03:51;;;;;;;3.38;2.22;;;;;;;19.73;100.00;101344.63;5071746;28;20028;-68
2023/08/12 10:06:17;;;;;;;3.92;2.40;;;;;;;19.73;100.00;101341.91;5054959;28;20037;-68
2023/08/12 10:08:45;;;;;;;4.95;2.40;;;;;;;19.66;100.00;101353.97;5055114;28;20051;-68
2023/08/12 10:11:11;;;;;;;6.57;2.38;;;;;;;19.69;100.00;101346.28;5054921;28;20029;-72
2023/08/12 10:13:37;;;;;;;4.95;2.50;;;;;;;19.74;100.00;101349.03;5046088;28;20056;-68
2023/08/12 10:16:03;;;;;;;5.57;2.10;;;;;;;19.76;100.00;101346.84;5050715;28;20113;-69
2023/08/12 10:18:30;;;;;;;6.40;2.25;;;;;;;19.78;100.00;101340.00;5042244;28;20083;-68
2023/08/12 10:20:58;;;;;;;3.88;2.10;;;;;;;19.80;100.00;101340.53;5043858;28;20458;-69
2023/08/12 10:23:24;;;;;;;4.72;2.17;;;;;;;19.83;100.00;101345.50;5055677;28;20454;-68
2023/08/12 10:25:54;;;;;;;4.65;1.90;;;;;;;19.80;100.00;101357.03;5046047;28;20037;-70
2023/08/12 10:28:20;;;;;;;5.10;2.30;;;;;;;19.78;100.00;101342.75;5035320;28;20111;-69
2023/08/12 10:30:45;;;;;;;5.60;2.08;;;;;;;19.90;100.00;101337.00;5034837;28;20068;-69
2023/08/12 10:33:13;;;;;;;4.53;1.90;;;;;;;20.01;100.00;101335.88;5045728;28;20129;-69
2023/08/12 10:35:49;;;;;;;7.25;1.90;;;;;;;20.14;100.00;101339.97;5052518;28;20037;-69
2023/08/12 10:38:17;;;;;;;3.65;1.70;;;;;;;20.19;100.00;101342.69;5053748;28;20036;-69
2023/08/12 10:40:43;;;;;;;5.55;2.10;;;;;;;20.20;100.00;101338.06;5038728;28;20025;-73
2023/08/12 10:43:09;;;;;;;5.22;1.90;;;;;;;20.26;100.00;101350.69;5048584;28;20602;-69
2023/08/12 10:45:48;;;;;;;4.95;1.70;;;;;;;20.34;100.00;101355.59;5034070;28;20469;-70
2023/08/12 10:48:31;;;;;;;8.40;2.42;;;;;;;20.43;100.00;101346.78;5034027;28;20021;-70
2023/08/12 10:50:59;;;;;;;4.35;2.17;;;;;;;20.28;100.00;101348.47;5040313;28;20034;-69
2023/08/12 10:53:25;;;;;;;5.30;1.80;;;;;;;20.35;100.00;101357.25;5041282;28;20033;-69
2023/08/12 10:55:55;;;;;;;4.03;1.70;;;;;;;20.36;100.00;101358.88;5046795;28;20029;-70
2023/08/12 10:58:28;;;;;;;6.35;1.85;;;;;;;20.35;100.00;101345.41;5039929;28;20033;-69
2023/08/12 11:00:55;;;;;;;4.63;1.95;;;;;;;20.35;100.00;101357.25;5046539;28;20029;-69
2023/08/12 11:03:20;;;;;;;3.67;1.40;;;;;;;20.32;100.00;101363.31;5053479;28;20357;-68
2023/08/12 11:05:46;;;;;;;6.13;1.67;;;;;;;20.30;100.00;101370.97;5045160;28;20119;-68
2023/08/12 11:08:14;;;;;;;4.40;1.80;;;;;;;20.38;100.00;101368.78;5052077;28;20033;-69
2023/08/12 11:10:40;;;;;;;5.13;2.00;;;;;;;20.36;100.00;101369.88;5048797;28;20037;-69
2023/08/12 11:13:06;;;;;;;4.28;1.90;;;;;;;20.50;100.00;101369.28;5036099;28;20033;-69
2023/08/12 11:15:41;;;;;;;6.22;1.75;;;;;;;20.52;100.00;101367.09;5047836;28;20120;-69
2023/08/12 11:18:16;;;;;;;5.95;2.00;;;;;;;20.67;100.00;101353.31;5042371;28;20115;-69
2023/08/12 11:20:42;;;;;;;5.75;1.90;;;;;;;20.62;100.00;101355.22;5050624;28;20074;-69
2023/08/12 11:23:08;;;;;;;4.65;2.05;;;;;;;20.68;100.00;101365.97;5051745;28;20056;-69
2023/08/12 11:25:35;;;;;;;6.57;2.08;;;;;;;20.71;100.00;101365.41;5053658;28;20033;-70
2023/08/12 11:28:01;;;;;;;6.80;1.92;;;;;;;20.73;100.00;101356.03;5051866;28;20564;-69
2023/08/12 11:30:27;;;;;;;5.55;2.20;;;;;;;20.74;100.00;101352.19;5045418;28;20112;-69
2023/08/12 11:32:54;;;;;;;7.43;2.30;;;;;;;20.68;100.00;101357.72;5053707;28;20467;-70
2023/08/12 11:35:21;;;;;;;5.85;2.20;;;;;;;20.75;100.00;101359.34;5053420;28;20468;-69
2023/08/12 11:37:49;;;;;;;10.77;2.65;;;;;;;20.89;100.00;101349.38;5050419;28;20078;-69
2023/08/12 11:40:17;;;;;;;10.13;2.47;;;;;;;20.89;100.00;101360.38;5033023;28;20524;-70
2023/08/12 11:42:47;;;;;;;7.80;2.30;;;;;;;20.89;100.00;101360.38;5033493;28;20029;-70
2023/08/12 11:45:15;;;;;;;10.05;2.72;;;;;;;20.91;100.00;101354.59;5033274;28;20029;-69
2023/08/12 11:47:41;;;;;;;8.48;2.38;;;;;;;20.94;100.00;101356.78;5032813;28;20076;-71
2023/08/12 11:50:08;;;;;;;8.23;2.78;;;;;;;20.87;100.00;101359.84;5032824;28;20539;-70
2023/08/12 11:52:35;;;;;;;7.32;2.38;;;;;;;20.87;100.00;101352.41;5033228;28;20057;-70
2023/08/12 11:55:01;;;;;;;7.20;2.03;;;;;;;20.97;100.00;101350.69;5032310;28;20440;-69
2023/08/12 11:57:27;;;;;;;8.23;2.38;;;;;;;21.02;100.00;101362.50;5034093;28;20083;-70
2023/08/12 12:00:00;;;;;;;10.60;2.88;;;;;;;21.19;100.00;101358.56;5035044;28;20644;-71
2023/08/12 12:02:25;;;;;;;8.85;2.88;;;;;;;21.22;100.00;101355.25;5059392;28;20397;-70
2023/08/12 12:04:52;;;;;;;8.45;2.50;;;;;;;21.30;100.00;101364.84;5073000;28;20031;-69
2023/08/12 12:07:22;;;;;;;10.02;2.55;;;;;;;21.23;100.00;101359.66;5057742;28;20384;-71
2023/08/12 12:09:51;;;;;;;8.63;2.92;;;;;;;21.19;100.00;101359.38;5044542;28;20029;-72
2023/08/12 12:12:17;;;;;;;9.45;2.70;;;;;;;21.21;100.00;101362.69;5045501;28;20032;-74
2023/08/12 12:14:42;;;;;;;6.45;2.33;;;;;;;21.33;100.00;101359.59;5042128;28;20061;-73
2023/08/12 12:17:13;;;;;;;8.13;2.60;;;;;;;21.50;100.00;101353.72;5036616;28;20029;-73
2023/08/12 12:19:40;;;;;;;8.20;2.88;;;;;;;21.56;100.00;101351.75;5041900;28;20391;-71
2023/08/12 12:22:06;;;;;;;8.30;2.30;;;;;;;21.57;100.00;101362.50;5041155;28;20056;-70
2023/08/12 12:24:43;;;;;;;8.15;2.50;;;;;;;21.64;100.00;101355.84;5032785;28;20064;-71
2023/08/12 12:27:08;;;;;;;9.23;2.67;;;;;;;21.86;100.00;101358.94;5031253;28;20029;-72
2023/08/12 12:29:34;;;;;;;11.18;3.40;;;;;;;21.85;100.00;101360.06;5044745;28;20032;-72
2023/08/12 12:31:59;;;;;;;9.68;2.70;;;;;;;21.86;100.00;101358.09;5043952;28;20063;-70
2023/08/12 12:34:24;;;;;;;8.82;2.90;;;;;;;21.99;100.00;101362.94;5032487;28;20029;-69
2023/08/12 12:36:49;;;;;;;6.68;2.70;;;;;;;22.05;100.00;101366.50;5032346;28;20029;-70
2023/08/12 12:39:15;;;;;;;8.07;2.50;;;;;;;22.03;95.69;101366.78;5032095;28;20116;-70
2023/08/12 12:41:40;;;;;;;9.50;2.95;;;;;;;22.23;100.00;101371.25;5032042;28;21018;-69
2023/08/12 12:44:05;;;;;;;9.95;2.63;;;;;;;22.29;96.19;101375.59;5042378;28;20025;-70
2023/08/12 12:46:31;;;;;;;7.45;2.60;;;;;;;22.49;93.37;101373.78;5048515;28;20464;-72
2023/08/12 12:48:56;;;;;;;8.65;2.78;;;;;;;22.60;88.58;101375.31;5047611;28;20624;-73
2023/08/12 12:51:21;;;;;;;5.32;2.30;;;;;;;22.70;83.92;101384.59;5050099;28;20128;-71
2023/08/12 12:53:47;;;;;;;7.88;2.70;;;;;;;22.72;82.40;101382.34;5051724;28;20368;-70
2023/08/12 12:56:12;;;;;;;6.57;2.40;;;;;;;22.68;79.91;101376.59;5031680;28;20643;-70
2023/08/12 12:58:37;;;;;;;7.57;2.60;;;;;;;22.74;85.58;101369.91;5043421;28;20032;-69
2023/08/12 13:01:04;;;;;;;8.48;2.83;;;;;;;22.71;76.28;101378.78;5030413;28;20098;-70
2023/08/12 13:03:30;;;;;;;8.57;2.35;;;;;;;22.69;79.80;101383.78;5032033;28;20022;-69
2023/08/12 13:05:56;;;;;;;8.60;2.85;;;;;;;22.65;79.26;101383.53;5051591;28;20025;-69
2023/08/12 13:08:21;;;;;;;5.65;2.30;;;;;;;22.88;85.03;101377.47;5052006;28;20096;-69
2023/08/12 13:10:47;;;;;;;5.90;2.60;;;;;;;23.15;90.68;101391.47;5049349;28;20029;-69
2023/08/12 13:13:15;;;;;;;7.65;2.50;;;;;;;23.41;86.60;101393.88;5045067;28;20456;-69
2023/08/12 13:15:42;;;;;;;5.78;2.30;;;;;;;23.38;68.51;101388.94;5050546;28;20094;-69
2023/08/12 13:18:08;;;;;;;5.93;2.22;;;;;;;23.33;67.87;101386.28;5050104;28;20033;-69
2023/08/12 13:20:33;;;;;;;8.45;2.03;;;;;;;23.38;66.48;101399.19;5052013;28;20487;-69
2023/08/12 13:22:59;;;;;;;7.90;2.55;;;;;;;23.39;63.93;101390.59;5052069;28;20025;-68
2023/08/12 13:25:24;;;;;;;8.10;2.30;;;;;;;23.50;68.09;101397.59;5050823;28;20052;-68
2023/08/12 13:27:49;;;;;;;7.20;2.33;;;;;;;23.49;63.62;101393.22;5046778;28;20033;-69
2023/08/12 13:30:14;;;;;;;6.50;2.42;;;;;;;23.28;62.25;101394.59;5050973;28;20044;-70
2023/08/12 13:32:40;;;;;;;6.50;2.28;;;;;;;23.13;65.73;101393.72;5052424;28;20465;-68
2023/08/12 13:35:05;;;;;;;5.45;2.33;;;;;;;23.20;66.83;101398.06;5055855;28;20037;-72
2023/08/12 13:37:33;;;;;;;5.80;2.22;;;;;;;23.25;67.71;101401.56;5040400;28;20041;-72
2023/08/12 13:39:58;;;;;;;7.65;2.20;;;;;;;23.27;61.52;101404.84;5035435;28;20427;-72
2023/08/12 13:42:23;;;;;;;8.15;2.20;;;;;;;23.11;66.37;101415.25;5035392;28;20025;-73
2023/08/12 13:44:49;;;;;;;7.35;2.63;;;;;;;23.01;64.49;101407.91;5055351;28;20043;-72
2023/08/12 13:47:14;;;;;;;7.97;2.55;;;;;;;23.25;61.73;101406.25;5070274;28;20040;-70
2023/08/12 13:49:39;;;;;;;8.57;2.20;;;;;;;23.48;63.74;101397.09;5055559;28;20443;-68
2023/08/12 13:52:05;;;;;;;10.75;2.75;;;;;;;23.74;62.45;101395.88;5051628;28;20476;-70
2023/08/12 13:54:30;;;;;;;5.05;2.20;;;;;;;23.84;63.29;101396.53;5053004;28;20033;-72
2023/08/12 13:56:56;;;;;;;8.18;2.50;;;;;;;23.81;64.41;101399.91;5054128;28;20119;-73
2023/08/12 13:59:21;;;;;;;8.85;2.88;;;;;;;23.93;67.45;101404.16;5054851;28;20025;-70
2023/08/12 14:01:46;;;;;;;6.68;2.40;;;;;;;24.01;61.88;101392.41;5052913;28;20125;-71
2023/08/12 14:04:12;;;;;;;6.97;2.60;;;;;;;23.94;60.40;101397.50;5051614;28;20513;-71
2023/08/12 14:06:37;;;;;;;9.25;2.97;;;;;;;23.71;60.98;101397.28;5045339;28;20030;-70
2023/08/12 14:09:03;;;;;;;12.18;3.20;;;;;;;23.83;60.06;101405.94;5053556;28;20060;-70
2023/08/12 14:11:28;;;;;;;10.35;2.60;;;;;;;24.12;61.22;101402.16;5061164;28;20025;-71
2023/08/12 14:13:53;;;;;;;7.75;2.63;;;;;;;24.30;59.05;101405.16;5034752;28;20844;-69
2023/08/12 14:16:19;;;;;;;7.43;2.85;;;;;;;24.40;59.92;101403.03;5039970;28;20037;-70
2023/08/12 14:18:44;;;;;;;7.80;2.90;;;;;;;24.31;55.99;101406.81;5034829;28;20026;-69
2023/08/12 14:21:09;;;;;;;5.40;2.85;;;;;;;24.25;57.65;101403.31;5034980;28;20040;-69
2023/08/12 14:23:35;;;;;;;6.63;2.85;;;;;;;24.26;57.57;101413.25;5034632;28;20465;-69
2023/08/12 14:26:01;;;;;;;6.65;3.03;;;;;;;23.88;55.60;101399.53;5037665;28;20150;-72
2023/08/12 14:28:26;;;;;;;8.10;3.08;;;;;;;23.72;57.92;101398.94;5051911;28;20044;-71
2023/08/12 14:30:51;;;;;;;7.45;2.85;;;;;;;23.78;59.30;101399.66;5045281;28;20136;-73
2023/08/12 14:33:16;;;;;;;8.02;3.20;;;;;;;23.93;59.37;101399.47;5034603;28;20087;-71
2023/08/12 14:35:42;;;;;;;8.73;2.90;;;;;;;24.11;59.01;101400.53;5048310;28;20112;-71
2023/08/12 14:38:07;;;;;;;7.73;3.20;;;;;;;24.07;59.77;101388.44;5053731;28;20037;-71
2023/08/12 14:40:32;;;;;;;6.78;3.10;;;;;;;24.30;63.35;101386.63;5054693;28;20316;-71
2023/08/12 14:42:58;;;;;;;7.53;3.13;;;;;;;24.47;59.57;101380.47;5054796;28;20103;-71
2023/08/12 14:45:23;;;;;;;8.25;3.17;;;;;;;24.46;54.14;101384.41;5038775;28;20394;-70
2023/08/12 14:47:48;;;;;;;8.80;3.25;;;;;;;24.26;56.21;101384.78;5049187;28;20104;-70
2023/08/12 14:50:14;;;;;;;7.38;3.00;;;;;;;23.99;55.94;101376.13;5063818;28;20115;-70
2023/08/12 14:52:39;;;;;;;10.15;3.40;;;;;;;24.09;58.65;101386.16;5074381;28;20025;-70
2023/08/12 14:55:05;;;;;;;6.88;3.55;;;;;;;24.30;56.37;101385.81;5041376;28;20037;-70
2023/08/12 14:57:31;;;;;;;6.65;3.17;;;;;;;24.98;56.03;101373.13;5034038;28;20033;-70
2023/08/12 14:59:56;;;;;;;8.98;3.28;;;;;;;25.35;52.37;101382.31;5034313;28;20032;-69
2023/08/12 15:02:22;;;;;;;6.50;2.80;;;;;;;25.02;52.51;101368.59;5059877;28;20045;-71
2023/08/12 15:04:49;;;;;;;6.97;3.38;;;;;;;24.55;54.15;101373.44;5045382;28;20079;-71
2023/08/12 15:07:16;;;;;;;8.02;2.95;;;;;;;24.18;55.67;101373.28;5048250;28;20068;-69
2023/08/12 15:09:42;;;;;;;6.47;2.83;;;;;;;23.86;58.44;101379.66;5054035;28;20028;-73
2023/08/12 15:12:07;;;;;;;7.13;2.90;;;;;;;23.85;59.52;101373.34;5052427;28;20086;-70
2023/08/12 15:14:32;;;;;;;8.38;3.08;;;;;;;23.99;55.90;101369.75;5042223;28;20033;-73
2023/08/12 15:16:58;;;;;;;5.00;2.60;;;;;;;24.06;55.68;101370.19;5051070;28;20431;-72
2023/08/12 15:19:23;;;;;;;8.00;2.67;;;;;;;24.00;60.84;101368.66;5044482;28;20025;-68
2023/08/12 15:21:48;;;;;;;5.22;2.60;;;;;;;23.97;58.08;101372.03;5035512;28;20461;-74
2023/08/12 15:24:14;;;;;;;7.38;2.63;;;;;;;23.80;59.03;101376.13;5036694;28;20028;-69
2023/08/12 15:26:39;;;;;;;6.30;2.50;;;;;;;23.65;59.39;101365.34;5044832;28;20030;-70
2023/08/12 15:29:05;;;;;;;5.38;2.33;;;;;;;23.57;59.12;101371.53;5046723;28;20487;-71
2023/08/12 15:31:30;;;;;;;8.23;2.25;;;;;;;23.36;59.73;101378.19;5037537;28;20030;-70
2023/08/12 15:33:55;;;;;;;7.38;2.33;;;;;;;23.32;61.68;101373.56;5038859;28;20083;-71
2023/08/12 15:36:21;;;;;;;4.70;1.80;;;;;;;23.25;59.88;101371.19;5036514;28;20037;-70
2023/08/12 15:38:47;;;;;;;6.47;2.15;;;;;;;23.31;61.10;101367.25;5040759;28;20029;-70
2023/08/12 15:41:14;;;;;;;5.28;1.60;;;;;;;24.16;59.51;101378.31;5046408;28;20041;-69
2023/08/12 15:43:40;;;;;;;8.25;2.50;;;;;;;24.79;55.25;101364.13;5039854;28;20033;-70
2023/08/12 15:46:06;;;;;;;4.63;1.80;;;;;;;24.72;54.98;101364.53;5044834;28;20111;-69
2023/08/12 15:48:32;;;;;;;7.25;2.20;;;;;;;24.39;55.91;101370.94;5044061;28;20029;-70
2023/08/12 15:50:58;;;;;;;6.55;2.13;;;;;;;24.04;55.00;101370.50;5053222;28;20082;-69
2023/08/12 15:53:23;;;;;;;5.15;1.90;;;;;;;23.77;55.96;101379.50;5050800;28;20428;-69
2023/08/12 15:55:49;;;;;;;4.72;1.80;;;;;;;23.93;55.98;101376.50;5047386;28;20025;-70
2023/08/12 15:58:18;;;;;;;7.40;2.03;;;;;;;24.51;56.72;101380.72;5046279;28;20144;-69
2023/08/12 16:00:43;;;;;;;7.93;2.22;;;;;;;24.83;53.45;101377.03;5032141;28;20092;-72
2023/08/12 16:03:09;;;;;;;6.38;2.20;;;;;;;25.08;53.44;101372.09;5072880;28;20147;-70
